sensor_id;sensor_type;location;lat;lon;timestamp;temperature;humidity
44851;DHT22;30583;48.714;9.386;2023-09-12T00:00:42;25.90;55.50
44851;DHT22;30583;48.714;9.386;2023-09-12T00:03:08;25.80;55.70
44851;DHT22;30583;48.714;9.386;2023-09-12T00:05:34;25.80;55.70
44851;DHT22;30583;48.714;9.386;2023-09-12T00:08:00;25.60;56.30
44851;DHT22;30583;48.714;9.386;2023-09-12T00:10:25;26.00;55.10
44851;DHT22;30583;48.714;9.386;2023-09-12T00:12:51;25.80;55.70
44851;DHT22;30583;48.714;9.386;2023-09-12T00:15:17;26.00;55.10
44851;DHT22;30583;48.714;9.386;2023-09-12T00:17:45;26.20;54.70
44851;DHT22;30583;48.714;9.386;2023-09-12T00:20:10;26.30;54.20
44851;DHT22;30583;48.714;9.386;2023-09-12T00:22:36;26.30;54.10
44851;DHT22;30583;48.714;9.386;2023-09-12T00:25:02;26.60;53.60
44851;DHT22;30583;48.714;9.386;2023-09-12T00:27:28;26.70;53.00
44851;DHT22;30583;48.714;9.386;2023-09-12T00:29:54;26.70;53.10
44851;DHT22;30583;48.714;9.386;2023-09-12T00:32:19;26.60;53.30
44851;DHT22;30583;48.714;9.386;2023-09-12T00:34:45;26.80;52.90
44851;DHT22;30583;48.714;9.386;2023-09-12T00:37:10;26.90;52.50
44851;DHT22;30583;48.714;9.386;2023-09-12T00:39:37;26.90;52.60
44851;DHT22;30583;48.714;9.386;2023-09-12T00:42:03;26.70;52.90
44851;DHT22;30583;48.714;9.386;2023-09-12T00:44:28;26.90;52.40
44851;DHT22;30583;48.714;9.386;2023-09-12T00:46:54;26.80;52.60
44851;DHT22;30583;48.714;9.386;2023-09-12T00:49:21;26.90;52.40
44851;DHT22;30583;48.714;9.386;2023-09-12T00:51:49;26.90;52.30
44851;DHT22;30583;48.714;9.386;2023-09-12T00:54:15;26.90;52.40
44851;DHT22;30583;48.714;9.386;2023-09-12T00:56:41;26.80;52.40
44851;DHT22;30583;48.714;9.386;2023-09-12T00:59:07;26.90;52.20
44851;DHT22;30583;48.714;9.386;2023-09-12T01:01:34;27.00;51.80
44851;DHT22;30583;48.714;9.386;2023-09-12T01:04:00;27.00;51.70
44851;DHT22;30583;48.714;9.386;2023-09-12T01:06:29;27.00;51.80
44851;DHT22;30583;48.714;9.386;2023-09-12T01:08:55;27.00;51.90
44851;DHT22;30583;48.714;9.386;2023-09-12T01:11:21;26.80;52.40
44851;DHT22;30583;48.714;9.386;2023-09-12T01:13:47;26.80;52.30
44851;DHT22;30583;48.714;9.386;2023-09-12T01:16:13;26.80;52.50
44851;DHT22;30583;48.714;9.386;2023-09-12T01:18:38;26.90;52.10
44851;DHT22;30583;48.714;9.386;2023-09-12T01:21:38;26.90;51.80
44851;DHT22;30583;48.714;9.386;2023-09-12T01:27:11;26.70;51.60
44851;DHT22;30583;48.714;9.386;2023-09-12T01:29:38;26.80;51.50
44851;DHT22;30583;48.714;9.386;2023-09-12T01:32:05;26.60;51.70
44851;DHT22;30583;48.714;9.386;2023-09-12T01:34:31;26.80;51.30
44851;DHT22;30583;48.714;9.386;2023-09-12T01:36:56;26.80;51.20
44851;DHT22;30583;48.714;9.386;2023-09-12T01:39:22;26.80;51.40
44851;DHT22;30583;48.714;9.386;2023-09-12T01:41:48;26.80;51.20
44851;DHT22;30583;48.714;9.386;2023-09-12T01:44:15;26.80;51.30
44851;DHT22;30583;48.714;9.386;2023-09-12T01:46:43;26.70;51.20
44851;DHT22;30583;48.714;9.386;2023-09-12T01:49:10;26.60;51.80
44851;DHT22;30583;48.714;9.386;2023-09-12T01:51:36;26.70;51.70
44851;DHT22;30583;48.714;9.386;2023-09-12T01:54:03;26.70;51.60
44851;DHT22;30583;48.714;9.386;2023-09-12T01:56:29;26.80;51.30
44851;DHT22;30583;48.714;9.386;2023-09-12T01:58:56;26.70;51.70
44851;DHT22;30583;48.714;9.386;2023-09-12T02:01:21;26.80;51.60
44851;DHT22;30583;48.714;9.386;2023-09-12T02:03:47;26.90;51.10
44851;DHT22;30583;48.714;9.386;2023-09-12T02:06:12;25.80;53.30
44851;DHT22;30583;48.714;9.386;2023-09-12T02:08:38;25.30;54.80
44851;DHT22;30583;48.714;9.386;2023-09-12T02:11:04;24.90;55.80
44851;DHT22;30583;48.714;9.386;2023-09-12T02:13:29;24.70;56.70
44851;DHT22;30583;48.714;9.386;2023-09-12T02:16:01;24.50;57.10
44851;DHT22;30583;48.714;9.386;2023-09-12T02:18:30;24.30;57.80
44851;DHT22;30583;48.714;9.386;2023-09-12T02:20:55;24.20;57.90
44851;DHT22;30583;48.714;9.386;2023-09-12T02:23:21;24.00;58.50
44851;DHT22;30583;48.714;9.386;2023-09-12T02:25:47;23.90;58.90
44851;DHT22;30583;48.714;9.386;2023-09-12T02:28:12;23.70;59.30
44851;DHT22;30583;48.714;9.386;2023-09-12T02:30:38;23.80;59.10
44851;DHT22;30583;48.714;9.386;2023-09-12T02:33:05;23.70;59.40
44851;DHT22;30583;48.714;9.386;2023-09-12T02:35:31;23.80;59.20
44851;DHT22;30583;48.714;9.386;2023-09-12T02:37:57;23.70;59.40
44851;DHT22;30583;48.714;9.386;2023-09-12T02:40:22;23.60;59.90
44851;DHT22;30583;48.714;9.386;2023-09-12T02:42:48;23.50;59.90
44851;DHT22;30583;48.714;9.386;2023-09-12T02:45:13;23.50;59.70
44851;DHT22;30583;48.714;9.386;2023-09-12T02:47:39;23.40;60.10
44851;DHT22;30583;48.714;9.386;2023-09-12T02:50:05;23.40;60.50
44851;DHT22;30583;48.714;9.386;2023-09-12T02:52:31;23.30;60.60
44851;DHT22;30583;48.714;9.386;2023-09-12T02:54:57;23.40;60.50
44851;DHT22;30583;48.714;9.386;2023-09-12T02:57:22;23.60;60.00
44851;DHT22;30583;48.714;9.386;2023-09-12T02:59:48;23.50;59.90
44851;DHT22;30583;48.714;9.386;2023-09-12T03:02:13;23.40;60.20
44851;DHT22;30583;48.714;9.386;2023-09-12T03:04:39;23.30;60.40
44851;DHT22;30583;48.714;9.386;2023-09-12T03:07:04;23.30;60.70
44851;DHT22;30583;48.714;9.386;2023-09-12T03:09:30;23.10;60.80
44851;DHT22;30583;48.714;9.386;2023-09-12T03:11:55;23.00;61.20
44851;DHT22;30583;48.714;9.386;2023-09-12T03:14:21;23.00;61.10
44851;DHT22;30583;48.714;9.386;2023-09-12T03:16:46;23.00;61.30
44851;DHT22;30583;48.714;9.386;2023-09-12T03:19:12;22.90;61.30
44851;DHT22;30583;48.714;9.386;2023-09-12T03:21:38;22.90;61.50
44851;DHT22;30583;48.714;9.386;2023-09-12T03:24:04;22.80;61.50
44851;DHT22;30583;48.714;9.386;2023-09-12T03:26:30;22.90;61.50
44851;DHT22;30583;48.714;9.386;2023-09-12T03:28:55;22.80;61.50
44851;DHT22;30583;48.714;9.386;2023-09-12T03:31:21;22.70;62.10
44851;DHT22;30583;48.714;9.386;2023-09-12T03:33:46;22.50;62.50
44851;DHT22;30583;48.714;9.386;2023-09-12T03:36:16;22.60;62.20
44851;DHT22;30583;48.714;9.386;2023-09-12T03:38:42;22.70;62.10
44851;DHT22;30583;48.714;9.386;2023-09-12T03:41:07;22.50;62.40
44851;DHT22;30583;48.714;9.386;2023-09-12T03:43:33;22.70;61.90
44851;DHT22;30583;48.714;9.386;2023-09-12T03:45:59;22.70;61.90
44851;DHT22;30583;48.714;9.386;2023-09-12T03:48:25;22.70;61.90
44851;DHT22;30583;48.714;9.386;2023-09-12T03:50:50;22.70;61.70
44851;DHT22;30583;48.714;9.386;2023-09-12T03:53:17;22.60;62.00
44851;DHT22;30583;48.714;9.386;2023-09-12T03:55:43;22.50;62.10
44851;DHT22;30583;48.714;9.386;2023-09-12T03:58:08;22.50;62.10
44851;DHT22;30583;48.714;9.386;2023-09-12T04:00:34;22.50;62.00
44851;DHT22;30583;48.714;9.386;2023-09-12T04:03:00;22.40;62.20
44851;DHT22;30583;48.714;9.386;2023-09-12T04:05:26;22.30;62.40
44851;DHT22;30583;48.714;9.386;2023-09-12T04:07:52;22.40;62.30
44851;DHT22;30583;48.714;9.386;2023-09-12T04:10:19;22.30;62.40
44851;DHT22;30583;48.714;9.386;2023-09-12T04:12:45;22.20;62.90
44851;DHT22;30583;48.714;9.386;2023-09-12T04:15:10;22.00;63.40
44851;DHT22;30583;48.714;9.386;2023-09-12T04:17:36;22.10;63.20
44851;DHT22;30583;48.714;9.386;2023-09-12T04:20:01;22.10;63.30
44851;DHT22;30583;48.714;9.386;2023-09-12T04:22:27;22.00;63.50
44851;DHT22;30583;48.714;9.386;2023-09-12T04:24:54;21.80;64.20
44851;DHT22;30583;48.714;9.386;2023-09-12T04:27:19;21.90;63.90
44851;DHT22;30583;48.714;9.386;2023-09-12T04:29:45;22.00;63.70
44851;DHT22;30583;48.714;9.386;2023-09-12T04:32:11;22.00;63.60
44851;DHT22;30583;48.714;9.386;2023-09-12T04:34:36;22.00;65.00
44851;DHT22;30583;48.714;9.386;2023-09-12T04:37:02;22.20;64.50
44851;DHT22;30583;48.714;9.386;2023-09-12T04:39:28;22.30;64.20
44851;DHT22;30583;48.714;9.386;2023-09-12T04:41:54;22.50;64.00
44851;DHT22;30583;48.714;9.386;2023-09-12T04:44:19;22.50;63.40
44851;DHT22;30583;48.714;9.386;2023-09-12T04:46:45;22.60;63.80
44851;DHT22;30583;48.714;9.386;2023-09-12T04:49:11;22.70;63.60
44851;DHT22;30583;48.714;9.386;2023-09-12T04:51:37;22.70;63.30
44851;DHT22;30583;48.714;9.386;2023-09-12T04:54:03;22.80;62.80
44851;DHT22;30583;48.714;9.386;2023-09-12T04:56:29;22.50;63.10
44851;DHT22;30583;48.714;9.386;2023-09-12T04:58:54;22.60;63.00
44851;DHT22;30583;48.714;9.386;2023-09-12T05:01:20;22.40;63.30
44851;DHT22;30583;48.714;9.386;2023-09-12T05:03:46;22.40;63.60
44851;DHT22;30583;48.714;9.386;2023-09-12T05:06:12;22.60;63.70
44851;DHT22;30583;48.714;9.386;2023-09-12T05:08:38;22.50;62.80
44851;DHT22;30583;48.714;9.386;2023-09-12T05:11:03;22.50;62.70
44851;DHT22;30583;48.714;9.386;2023-09-12T05:13:30;22.30;62.90
44851;DHT22;30583;48.714;9.386;2023-09-12T05:15:55;22.30;63.60
44851;DHT22;30583;48.714;9.386;2023-09-12T05:18:22;22.50;63.20
44851;DHT22;30583;48.714;9.386;2023-09-12T05:20:47;22.40;62.80
44851;DHT22;30583;48.714;9.386;2023-09-12T05:23:13;22.30;64.00
44851;DHT22;30583;48.714;9.386;2023-09-12T05:25:39;22.20;64.20
44851;DHT22;30583;48.714;9.386;2023-09-12T05:28:04;22.30;64.10
44851;DHT22;30583;48.714;9.386;2023-09-12T05:30:30;22.40;64.00
44851;DHT22;30583;48.714;9.386;2023-09-12T05:32:56;22.20;64.40
44851;DHT22;30583;48.714;9.386;2023-09-12T05:35:21;22.20;64.80
44851;DHT22;30583;48.714;9.386;2023-09-12T05:37:47;22.30;64.10
44851;DHT22;30583;48.714;9.386;2023-09-12T05:40:13;22.00;65.00
44851;DHT22;30583;48.714;9.386;2023-09-12T05:42:38;22.10;64.70
44851;DHT22;30583;48.714;9.386;2023-09-12T05:45:06;22.20;64.40
44851;DHT22;30583;48.714;9.386;2023-09-12T05:47:32;22.30;64.20
44851;DHT22;30583;48.714;9.386;2023-09-12T05:49:58;22.40;63.10
44851;DHT22;30583;48.714;9.386;2023-09-12T05:52:24;22.40;63.90
44851;DHT22;30583;48.714;9.386;2023-09-12T05:54:50;22.40;63.70
44851;DHT22;30583;48.714;9.386;2023-09-12T05:57:16;22.40;63.40
44851;DHT22;30583;48.714;9.386;2023-09-12T05:59:41;22.30;63.30
44851;DHT22;30583;48.714;9.386;2023-09-12T06:02:07;22.20;64.30
44851;DHT22;30583;48.714;9.386;2023-09-12T06:04:35;22.60;64.10
44851;DHT22;30583;48.714;9.386;2023-09-12T06:07:02;23.00;62.40
44851;DHT22;30583;48.714;9.386;2023-09-12T06:09:28;22.80;62.80
44851;DHT22;30583;48.714;9.386;2023-09-12T06:11:54;23.10;62.50
44851;DHT22;30583;48.714;9.386;2023-09-12T06:14:20;22.90;62.50
44851;DHT22;30583;48.714;9.386;2023-09-12T06:16:45;22.90;62.70
44851;DHT22;30583;48.714;9.386;2023-09-12T06:19:11;23.30;61.90
44851;DHT22;30583;48.714;9.386;2023-09-12T06:21:37;23.30;61.60
44851;DHT22;30583;48.714;9.386;2023-09-12T06:24:14;23.20;61.70
44851;DHT22;30583;48.714;9.386;2023-09-12T06:26:40;23.20;62.00
44851;DHT22;30583;48.714;9.386;2023-09-12T06:29:06;23.20;62.00
44851;DHT22;30583;48.714;9.386;2023-09-12T06:31:32;23.30;61.70
44851;DHT22;30583;48.714;9.386;2023-09-12T06:33:58;23.30;61.20
44851;DHT22;30583;48.714;9.386;2023-09-12T06:36:25;23.20;62.20
44851;DHT22;30583;48.714;9.386;2023-09-12T06:38:51;23.20;61.80
44851;DHT22;30583;48.714;9.386;2023-09-12T06:41:20;23.30;61.50
44851;DHT22;30583;48.714;9.386;2023-09-12T06:43:46;23.30;61.80
44851;DHT22;30583;48.714;9.386;2023-09-12T06:46:11;23.50;61.20
44851;DHT22;30583;48.714;9.386;2023-09-12T06:48:37;23.10;61.80
44851;DHT22;30583;48.714;9.386;2023-09-12T06:51:08;22.90;63.20
44851;DHT22;30583;48.714;9.386;2023-09-12T06:53:33;22.90;62.60
44851;DHT22;30583;48.714;9.386;2023-09-12T06:55:59;23.20;62.40
44851;DHT22;30583;48.714;9.386;2023-09-12T06:58:25;23.20;62.10
44851;DHT22;30583;48.714;9.386;2023-09-12T07:00:51;23.30;62.10
44851;DHT22;30583;48.714;9.386;2023-09-12T07:03:16;23.60;61.30
44851;DHT22;30583;48.714;9.386;2023-09-12T07:05:42;23.50;61.30
44851;DHT22;30583;48.714;9.386;2023-09-12T07:08:08;23.50;61.30
44851;DHT22;30583;48.714;9.386;2023-09-12T07:10:34;23.70;60.80
44851;DHT22;30583;48.714;9.386;2023-09-12T07:13:01;23.80;60.40
44851;DHT22;30583;48.714;9.386;2023-09-12T07:15:27;23.90;60.30
44851;DHT22;30583;48.714;9.386;2023-09-12T07:17:53;23.60;60.80
44851;DHT22;30583;48.714;9.386;2023-09-12T07:20:19;23.30;61.60
44851;DHT22;30583;48.714;9.386;2023-09-12T07:22:45;23.30;61.50
44851;DHT22;30583;48.714;9.386;2023-09-12T07:25:13;23.20;62.00
44851;DHT22;30583;48.714;9.386;2023-09-12T07:27:39;23.30;61.70
44851;DHT22;30583;48.714;9.386;2023-09-12T07:30:07;23.40;61.70
44851;DHT22;30583;48.714;9.386;2023-09-12T07:32:32;23.40;61.50
44851;DHT22;30583;48.714;9.386;2023-09-12T07:34:58;23.50;61.40
44851;DHT22;30583;48.714;9.386;2023-09-12T07:37:24;23.70;60.80
44851;DHT22;30583;48.714;9.386;2023-09-12T07:39:49;23.70;60.70
44851;DHT22;30583;48.714;9.386;2023-09-12T07:42:15;23.70;60.70
44851;DHT22;30583;48.714;9.386;2023-09-12T07:44:41;23.60;61.30
44851;DHT22;30583;48.714;9.386;2023-09-12T07:47:07;23.60;61.20
44851;DHT22;30583;48.714;9.386;2023-09-12T07:49:32;23.50;61.40
44851;DHT22;30583;48.714;9.386;2023-09-12T07:51:58;23.30;61.40
44851;DHT22;30583;48.714;9.386;2023-09-12T07:54:23;23.40;61.50
44851;DHT22;30583;48.714;9.386;2023-09-12T07:56:49;23.40;61.50
44851;DHT22;30583;48.714;9.386;2023-09-12T07:59:15;23.40;61.60
44851;DHT22;30583;48.714;9.386;2023-09-12T08:01:40;23.30;62.10
44851;DHT22;30583;48.714;9.386;2023-09-12T08:04:06;23.30;62.20
44851;DHT22;30583;48.714;9.386;2023-09-12T08:06:32;23.20;62.30
44851;DHT22;30583;48.714;9.386;2023-09-12T08:08:58;23.40;62.20
44851;DHT22;30583;48.714;9.386;2023-09-12T08:11:24;23.50;61.70
44851;DHT22;30583;48.714;9.386;2023-09-12T08:13:50;23.60;61.60
44851;DHT22;30583;48.714;9.386;2023-09-12T08:16:16;23.70;61.20
44851;DHT22;30583;48.714;9.386;2023-09-12T08:18:41;24.10;60.40
44851;DHT22;30583;48.714;9.386;2023-09-12T08:21:07;24.20;60.40
44851;DHT22;30583;48.714;9.386;2023-09-12T08:23:33;24.30;59.90
44851;DHT22;30583;48.714;9.386;2023-09-12T08:25:59;24.30;60.00
44851;DHT22;30583;48.714;9.386;2023-09-12T08:28:24;24.40;59.80
44851;DHT22;30583;48.714;9.386;2023-09-12T08:30:51;24.60;59.40
44851;DHT22;30583;48.714;9.386;2023-09-12T08:33:16;24.60;59.50
44851;DHT22;30583;48.714;9.386;2023-09-12T08:35:42;24.70;59.40
44851;DHT22;30583;48.714;9.386;2023-09-12T08:38:08;24.80;59.10
44851;DHT22;30583;48.714;9.386;2023-09-12T08:40:34;24.80;59.10
44851;DHT22;30583;48.714;9.386;2023-09-12T08:43:01;24.70;59.50
44851;DHT22;30583;48.714;9.386;2023-09-12T08:45:28;24.40;59.60
44851;DHT22;30583;48.714;9.386;2023-09-12T08:47:56;24.70;60.10
44851;DHT22;30583;48.714;9.386;2023-09-12T08:50:22;24.70;59.80
44851;DHT22;30583;48.714;9.386;2023-09-12T08:52:49;25.10;58.60
44851;DHT22;30583;48.714;9.386;2023-09-12T08:55:15;25.40;58.40
44851;DHT22;30583;48.714;9.386;2023-09-12T08:57:42;25.50;57.50
44851;DHT22;30583;48.714;9.386;2023-09-12T09:00:08;25.70;57.40
44851;DHT22;30583;48.714;9.386;2023-09-12T09:02:40;25.80;57.70
44851;DHT22;30583;48.714;9.386;2023-09-12T09:05:06;25.80;58.10
44851;DHT22;30583;48.714;9.386;2023-09-12T09:07:39;25.30;58.00
44851;DHT22;30583;48.714;9.386;2023-09-12T09:10:15;25.60;57.70
44851;DHT22;30583;48.714;9.386;2023-09-12T09:12:42;25.70;59.10
44851;DHT22;30583;48.714;9.386;2023-09-12T09:15:28;25.90;58.00
44851;DHT22;30583;48.714;9.386;2023-09-12T09:17:55;25.70;58.10
44851;DHT22;30583;48.714;9.386;2023-09-12T09:20:41;25.80;58.30
44851;DHT22;30583;48.714;9.386;2023-09-12T09:23:08;26.20;58.90
44851;DHT22;30583;48.714;9.386;2023-09-12T09:25:36;26.40;57.50
44851;DHT22;30583;48.714;9.386;2023-09-12T09:28:04;26.40;56.90
44851;DHT22;30583;48.714;9.386;2023-09-12T09:30:51;26.50;56.30
44851;DHT22;30583;48.714;9.386;2023-09-12T09:33:17;26.50;56.20
44851;DHT22;30583;48.714;9.386;2023-09-12T09:35:46;26.30;56.50
44851;DHT22;30583;48.714;9.386;2023-09-12T09:38:12;26.40;56.20
44851;DHT22;30583;48.714;9.386;2023-09-12T09:40:45;26.40;56.90
44851;DHT22;30583;48.714;9.386;2023-09-12T09:43:11;26.90;57.00
44851;DHT22;30583;48.714;9.386;2023-09-12T09:45:44;28.70;57.50
44851;DHT22;30583;48.714;9.386;2023-09-12T09:48:10;29.80;51.30
44851;DHT22;30583;48.714;9.386;2023-09-12T09:50:42;32.10;49.00
44851;DHT22;30583;48.714;9.386;2023-09-12T09:53:08;34.00;44.00
44851;DHT22;30583;48.714;9.386;2023-09-12T09:55:35;35.10;40.70
44851;DHT22;30583;48.714;9.386;2023-09-12T09:58:01;36.10;37.40
44851;DHT22;30583;48.714;9.386;2023-09-12T10:00:28;33.30;43.10
44851;DHT22;30583;48.714;9.386;2023-09-12T10:02:55;34.60;40.70
44851;DHT22;30583;48.714;9.386;2023-09-12T10:05:22;36.20;42.20
44851;DHT22;30583;48.714;9.386;2023-09-12T10:07:49;36.30;46.00
44851;DHT22;30583;48.714;9.386;2023-09-12T10:10:18;36.00;40.50
44851;DHT22;30583;48.714;9.386;2023-09-12T10:12:56;33.40;42.80
44851;DHT22;30583;48.714;9.386;2023-09-12T10:15:22;32.30;44.30
44851;DHT22;30583;48.714;9.386;2023-09-12T10:17:55;31.20;45.30
44851;DHT22;30583;48.714;9.386;2023-09-12T10:20:25;31.90;50.00
44851;DHT22;30583;48.714;9.386;2023-09-12T10:23:04;34.10;44.00
44851;DHT22;30583;48.714;9.386;2023-09-12T10:25:35;35.70;41.90
44851;DHT22;30583;48.714;9.386;2023-09-12T10:28:06;34.40;39.70
44851;DHT22;30583;48.714;9.386;2023-09-12T10:30:33;32.70;42.60
44851;DHT22;30583;48.714;9.386;2023-09-12T10:33:02;32.20;42.80
44851;DHT22;30583;48.714;9.386;2023-09-12T10:35:30;31.50;43.10
44851;DHT22;30583;48.714;9.386;2023-09-12T10:38:01;32.10;44.50
44851;DHT22;30583;48.714;9.386;2023-09-12T10:40:29;31.90;43.30
44851;DHT22;30583;48.714;9.386;2023-09-12T10:42:56;31.80;43.50
44851;DHT22;30583;48.714;9.386;2023-09-12T10:45:23;31.90;43.20
44851;DHT22;30583;48.714;9.386;2023-09-12T10:47:48;32.90;41.50
44851;DHT22;30583;48.714;9.386;2023-09-12T10:50:14;33.10;41.20
44851;DHT22;30583;48.714;9.386;2023-09-12T10:52:40;33.00;41.30
44851;DHT22;30583;48.714;9.386;2023-09-12T10:55:07;34.20;40.20
44851;DHT22;30583;48.714;9.386;2023-09-12T10:57:33;34.20;40.20
44851;DHT22;30583;48.714;9.386;2023-09-12T11:02:33;34.70;39.00
44851;DHT22;30583;48.714;9.386;2023-09-12T11:05:00;34.70;38.70
44851;DHT22;30583;48.714;9.386;2023-09-12T11:10:16;34.50;38.70
44851;DHT22;30583;48.714;9.386;2023-09-12T11:12:46;34.80;38.10
44851;DHT22;30583;48.714;9.386;2023-09-12T11:15:12;35.10;38.60
44851;DHT22;30583;48.714;9.386;2023-09-12T11:17:43;35.40;38.10
44851;DHT22;30583;48.714;9.386;2023-09-12T11:20:10;35.50;37.60
44851;DHT22;30583;48.714;9.386;2023-09-12T11:22:40;35.50;36.30
44851;DHT22;30583;48.714;9.386;2023-09-12T11:25:25;35.20;37.50
44851;DHT22;30583;48.714;9.386;2023-09-12T11:30:18;35.70;37.60
44851;DHT22;30583;48.714;9.386;2023-09-12T11:32:47;35.70;36.30
44851;DHT22;30583;48.714;9.386;2023-09-12T11:35:14;35.50;34.00
44851;DHT22;30583;48.714;9.386;2023-09-12T11:37:40;35.40;34.80
44851;DHT22;30583;48.714;9.386;2023-09-12T11:42:42;35.70;36.10
44851;DHT22;30583;48.714;9.386;2023-09-12T11:45:09;35.50;36.00
44851;DHT22;30583;48.714;9.386;2023-09-12T11:47:43;35.60;35.90
44851;DHT22;30583;48.714;9.386;2023-09-12T11:50:32;35.20;35.30
44851;DHT22;30583;48.714;9.386;2023-09-12T11:53:20;35.10;35.40
44851;DHT22;30583;48.714;9.386;2023-09-12T11:55:47;35.80;34.40
44851;DHT22;30583;48.714;9.386;2023-09-12T11:58:15;36.30;32.80
44851;DHT22;30583;48.714;9.386;2023-09-12T12:00:54;36.50;31.90
44851;DHT22;30583;48.714;9.386;2023-09-12T12:03:25;36.30;33.30
44851;DHT22;30583;48.714;9.386;2023-09-12T12:05:51;36.20;32.60
44851;DHT22;30583;48.714;9.386;2023-09-12T12:08:18;36.30;33.00
44851;DHT22;30583;48.714;9.386;2023-09-12T12:10:44;36.20;32.60
44851;DHT22;30583;48.714;9.386;2023-09-12T12:13:18;36.20;32.00
44851;DHT22;30583;48.714;9.386;2023-09-12T12:15:44;36.20;31.50
44851;DHT22;30583;48.714;9.386;2023-09-12T12:18:09;36.40;30.10
44851;DHT22;30583;48.714;9.386;2023-09-12T12:20:35;36.50;30.30
44851;DHT22;30583;48.714;9.386;2023-09-12T12:23:01;36.30;31.00
44851;DHT22;30583;48.714;9.386;2023-09-12T12:25:28;36.70;29.60
44851;DHT22;30583;48.714;9.386;2023-09-12T12:27:56;37.00;29.90
44851;DHT22;30583;48.714;9.386;2023-09-12T12:30:22;36.70;27.90
44851;DHT22;30583;48.714;9.386;2023-09-12T12:32:48;36.80;27.90
44851;DHT22;30583;48.714;9.386;2023-09-12T12:35:20;37.00;29.10
44851;DHT22;30583;48.714;9.386;2023-09-12T12:37:50;37.30;28.20
44851;DHT22;30583;48.714;9.386;2023-09-12T12:40:17;37.30;28.90
44851;DHT22;30583;48.714;9.386;2023-09-12T12:42:43;37.10;29.60
44851;DHT22;30583;48.714;9.386;2023-09-12T12:45:17;37.30;30.50
44851;DHT22;30583;48.714;9.386;2023-09-12T12:47:43;37.30;28.40
44851;DHT22;30583;48.714;9.386;2023-09-12T12:50:15;37.30;28.00
44851;DHT22;30583;48.714;9.386;2023-09-12T12:52:47;37.20;28.30
44851;DHT22;30583;48.714;9.386;2023-09-12T12:55:13;37.20;28.30
44851;DHT22;30583;48.714;9.386;2023-09-12T12:57:40;37.70;28.50
44851;DHT22;30583;48.714;9.386;2023-09-12T13:00:14;37.70;28.00
44851;DHT22;30583;48.714;9.386;2023-09-12T13:02:41;37.80;29.00
44851;DHT22;30583;48.714;9.386;2023-09-12T13:05:21;38.00;27.80
44851;DHT22;30583;48.714;9.386;2023-09-12T13:07:47;37.30;27.00
44851;DHT22;30583;48.714;9.386;2023-09-12T13:10:12;36.80;27.70
44851;DHT22;30583;48.714;9.386;2023-09-12T13:12:38;37.00;31.10
44851;DHT22;30583;48.714;9.386;2023-09-12T13:15:04;36.20;32.30
44851;DHT22;30583;48.714;9.386;2023-09-12T13:17:30;36.50;31.00
44851;DHT22;30583;48.714;9.386;2023-09-12T13:19:56;35.90;29.90
44851;DHT22;30583;48.714;9.386;2023-09-12T13:22:22;35.90;31.20
44851;DHT22;30583;48.714;9.386;2023-09-12T13:24:47;35.90;31.60
44851;DHT22;30583;48.714;9.386;2023-09-12T13:27:13;36.00;33.10
44851;DHT22;30583;48.714;9.386;2023-09-12T13:29:39;36.20;32.30
44851;DHT22;30583;48.714;9.386;2023-09-12T13:32:05;36.70;33.70
44851;DHT22;30583;48.714;9.386;2023-09-12T13:34:30;36.50;32.10
44851;DHT22;30583;48.714;9.386;2023-09-12T13:36:56;36.60;33.50
44851;DHT22;30583;48.714;9.386;2023-09-12T13:39:23;36.60;33.80
44851;DHT22;30583;48.714;9.386;2023-09-12T13:41:49;36.70;33.00
44851;DHT22;30583;48.714;9.386;2023-09-12T13:44:15;36.80;32.60
44851;DHT22;30583;48.714;9.386;2023-09-12T13:46:41;36.20;31.70
44851;DHT22;30583;48.714;9.386;2023-09-12T13:49:09;36.30;33.70
44851;DHT22;30583;48.714;9.386;2023-09-12T13:51:35;36.80;32.60
44851;DHT22;30583;48.714;9.386;2023-09-12T13:54:01;36.20;30.90
44851;DHT22;30583;48.714;9.386;2023-09-12T13:56:27;36.40;32.70
44851;DHT22;30583;48.714;9.386;2023-09-12T13:58:52;36.70;31.50
44851;DHT22;30583;48.714;9.386;2023-09-12T14:01:18;36.80;31.20
44851;DHT22;30583;48.714;9.386;2023-09-12T14:03:45;36.90;31.80
44851;DHT22;30583;48.714;9.386;2023-09-12T14:06:10;37.10;31.30
44851;DHT22;30583;48.714;9.386;2023-09-12T14:08:36;37.10;31.60
44851;DHT22;30583;48.714;9.386;2023-09-12T14:11:01;37.10;31.50
44851;DHT22;30583;48.714;9.386;2023-09-12T14:13:27;37.00;31.80
44851;DHT22;30583;48.714;9.386;2023-09-12T14:15:53;37.00;30.70
44851;DHT22;30583;48.714;9.386;2023-09-12T14:18:19;36.90;30.80
44851;DHT22;30583;48.714;9.386;2023-09-12T14:20:44;36.90;30.10
44851;DHT22;30583;48.714;9.386;2023-09-12T14:23:11;36.70;30.40
44851;DHT22;30583;48.714;9.386;2023-09-12T14:25:37;36.70;30.80
44851;DHT22;30583;48.714;9.386;2023-09-12T14:28:03;36.10;30.70
44851;DHT22;30583;48.714;9.386;2023-09-12T14:30:30;36.00;30.80
44851;DHT22;30583;48.714;9.386;2023-09-12T14:33:01;35.70;32.10
44851;DHT22;30583;48.714;9.386;2023-09-12T14:35:26;35.20;33.80
44851;DHT22;30583;48.714;9.386;2023-09-12T14:37:52;35.00;34.50
44851;DHT22;30583;48.714;9.386;2023-09-12T14:40:17;34.70;34.90
44851;DHT22;30583;48.714;9.386;2023-09-12T14:42:43;34.50;35.40
44851;DHT22;30583;48.714;9.386;2023-09-12T14:45:09;34.50;35.60
44851;DHT22;30583;48.714;9.386;2023-09-12T14:47:35;34.50;35.70
44851;DHT22;30583;48.714;9.386;2023-09-12T14:50:01;34.00;36.10
44851;DHT22;30583;48.714;9.386;2023-09-12T14:52:27;34.00;36.30
44851;DHT22;30583;48.714;9.386;2023-09-12T14:54:53;33.90;36.50
44851;DHT22;30583;48.714;9.386;2023-09-12T14:57:18;34.00;36.40
44851;DHT22;30583;48.714;9.386;2023-09-12T14:59:45;33.80;36.90
44851;DHT22;30583;48.714;9.386;2023-09-12T15:02:11;33.90;37.20
44851;DHT22;30583;48.714;9.386;2023-09-12T15:04:37;33.80;37.00
44851;DHT22;30583;48.714;9.386;2023-09-12T15:07:02;33.70;37.10
44851;DHT22;30583;48.714;9.386;2023-09-12T15:09:28;33.50;37.40
44851;DHT22;30583;48.714;9.386;2023-09-12T15:11:54;33.70;37.40
44851;DHT22;30583;48.714;9.386;2023-09-12T15:14:19;33.50;37.50
44851;DHT22;30583;48.714;9.386;2023-09-12T15:16:45;33.70;37.10
44851;DHT22;30583;48.714;9.386;2023-09-12T15:19:11;33.50;37.40
44851;DHT22;30583;48.714;9.386;2023-09-12T15:21:36;33.70;36.70
44851;DHT22;30583;48.714;9.386;2023-09-12T15:24:02;33.50;36.60
44851;DHT22;30583;48.714;9.386;2023-09-12T15:26:28;33.50;36.80
44851;DHT22;30583;48.714;9.386;2023-09-12T15:28:54;33.20;36.10
44851;DHT22;30583;48.714;9.386;2023-09-12T15:31:20;33.30;36.60
44851;DHT22;30583;48.714;9.386;2023-09-12T15:33:45;33.40;36.60
44851;DHT22;30583;48.714;9.386;2023-09-12T15:36:11;33.30;37.30
44851;DHT22;30583;48.714;9.386;2023-09-12T15:38:37;33.30;37.00
44851;DHT22;30583;48.714;9.386;2023-09-12T15:41:02;32.50;39.70